sensor_id;sensor_type;location;lat;lon;timestamp;P1;durP1;ratioP1;P2;durP2;ratioP2
22935;SDS011;11633;42.716;23.312;2022-12-07T00:01:53;16.60;;;8.60;;
22935;SDS011;11633;42.716;23.312;2022-12-07T00:04:19;15.55;;;8.25;;
22935;SDS011;11633;42.716;23.312;2022-12-07T00:06:45;17.70;;;7.63;;
22935;SDS011;11633;42.716;23.312;2022-12-07T00:09:12;16.08;;;8.30;;
22935;SDS011;11633;42.716;23.312;2022-12-07T00:11:38;20.83;;;10.48;;
22935;SDS011;11633;42.716;23.312;2022-12-07T00:14:04;19.23;;;9.23;;
22935;SDS011;11633;42.716;23.312;2022-12-07T00:16:30;20.13;;;10.95;;
22935;SDS011;11633;42.716;23.312;2022-12-07T00:18:56;22.73;;;9.98;;
22935;SDS011;11633;42.716;23.312;2022-12-07T00:21:23;17.45;;;8.38;;
22935;SDS011;11633;42.716;23.312;2022-12-07T00:23:49;19.63;;;10.27;;
22935;SDS011;11633;42.716;23.312;2022-12-07T00:26:16;17.20;;;9.82;;
22935;SDS011;11633;42.716;23.312;2022-12-07T00:28:44;19.88;;;10.80;;
22935;SDS011;11633;42.716;23.312;2022-12-07T00:31:10;24.08;;;10.48;;
22935;SDS011;11633;42.716;23.312;2022-12-07T00:33:36;17.42;;;9.43;;
22935;SDS011;11633;42.716;23.312;2022-12-07T00:36:02;20.52;;;9.93;;
22935;SDS011;11633;42.716;23.312;2022-12-07T00:38:29;17.65;;;10.32;;
22935;SDS011;11633;42.716;23.312;2022-12-07T00:40:58;15.90;;;9.10;;
22935;SDS011;11633;42.716;23.312;2022-12-07T00:43:23;21.40;;;10.40;;
22935;SDS011;11633;42.716;23.312;2022-12-07T00:45:49;17.85;;;8.95;;
22935;SDS011;11633;42.716;23.312;2022-12-07T00:48:14;19.48;;;9.85;;
22935;SDS011;11633;42.716;23.312;2022-12-07T00:50:39;16.70;;;9.60;;
22935;SDS011;11633;42.716;23.312;2022-12-07T00:53:04;18.10;;;8.90;;
22935;SDS011;11633;42.716;23.312;2022-12-07T00:55:32;19.52;;;8.95;;
22935;SDS011;11633;42.716;23.312;2022-12-07T00:57:58;18.08;;;10.38;;
22935;SDS011;11633;42.716;23.312;2022-12-07T01:00:23;17.55;;;9.38;;
22935;SDS011;11633;42.716;23.312;2022-12-07T01:02:48;19.38;;;9.45;;
22935;SDS011;11633;42.716;23.312;2022-12-07T01:05:13;18.60;;;9.10;;
22935;SDS011;11633;42.716;23.312;2022-12-07T01:07:39;17.40;;;10.73;;
22935;SDS011;11633;42.716;23.312;2022-12-07T01:10:04;18.55;;;9.40;;
22935;SDS011;11633;42.716;23.312;2022-12-07T01:12:29;17.95;;;9.85;;
22935;SDS011;11633;42.716;23.312;2022-12-07T01:14:55;20.67;;;9.77;;
22935;SDS011;11633;42.716;23.312;2022-12-07T01:17:20;17.05;;;8.82;;
22935;SDS011;11633;42.716;23.312;2022-12-07T01:19:45;17.45;;;9.07;;
22935;SDS011;11633;42.716;23.312;2022-12-07T01:22:10;16.67;;;9.05;;
22935;SDS011;11633;42.716;23.312;2022-12-07T01:24:35;19.05;;;8.65;;
22935;SDS011;11633;42.716;23.312;2022-12-07T01:27:01;19.20;;;9.98;;
22935;SDS011;11633;42.716;23.312;2022-12-07T01:29:26;19.10;;;9.68;;
22935;SDS011;11633;42.716;23.312;2022-12-07T01:31:51;18.80;;;9.30;;
22935;SDS011;11633;42.716;23.312;2022-12-07T01:34:16;16.10;;;9.52;;
22935;SDS011;11633;42.716;23.312;2022-12-07T01:36:42;20.58;;;9.88;;
22935;SDS011;11633;42.716;23.312;2022-12-07T01:39:08;18.13;;;8.75;;
22935;SDS011;11633;42.716;23.312;2022-12-07T01:41:35;17.85;;;10.23;;
22935;SDS011;11633;42.716;23.312;2022-12-07T01:46:32;17.77;;;9.57;;
22935;SDS011;11633;42.716;23.312;2022-12-07T01:48:57;17.80;;;9.02;;
22935;SDS011;11633;42.716;23.312;2022-12-07T01:51:23;17.38;;;9.52;;
22935;SDS011;11633;42.716;23.312;2022-12-07T01:53:48;19.73;;;10.98;;
22935;SDS011;11633;42.716;23.312;2022-12-07T01:56:16;21.60;;;10.52;;
22935;SDS011;11633;42.716;23.312;2022-12-07T01:58:42;20.27;;;10.45;;
22935;SDS011;11633;42.716;23.312;2022-12-07T02:01:07;14.20;;;8.73;;
22935;SDS011;11633;42.716;23.312;2022-12-07T02:03:37;17.38;;;10.48;;
22935;SDS011;11633;42.716;23.312;2022-12-07T02:06:04;20.05;;;11.00;;
22935;SDS011;11633;42.716;23.312;2022-12-07T02:08:29;21.13;;;10.32;;
22935;SDS011;11633;42.716;23.312;2022-12-07T02:10:55;16.02;;;9.07;;
22935;SDS011;11633;42.716;23.312;2022-12-07T02:13:23;18.73;;;9.63;;
22935;SDS011;11633;42.716;23.312;2022-12-07T02:23:29;16.73;;;10.05;;
22935;SDS011;11633;42.716;23.312;2022-12-07T02:28:47;16.63;;;9.77;;
22935;SDS011;11633;42.716;23.312;2022-12-07T02:31:17;17.38;;;8.93;;
22935;SDS011;11633;42.716;23.312;2022-12-07T02:33:44;15.40;;;9.18;;
22935;SDS011;11633;42.716;23.312;2022-12-07T02:36:12;17.33;;;10.18;;
22935;SDS011;11633;42.716;23.312;2022-12-07T02:38:45;17.58;;;9.18;;
22935;SDS011;11633;42.716;23.312;2022-12-07T02:41:13;16.15;;;8.70;;
22935;SDS011;11633;42.716;23.312;2022-12-07T02:43:41;18.65;;;9.10;;
22935;SDS011;11633;42.716;23.312;2022-12-07T02:46:09;21.52;;;10.30;;
22935;SDS011;11633;42.716;23.312;2022-12-07T02:48:35;17.25;;;9.38;;
22935;SDS011;11633;42.716;23.312;2022-12-07T02:51:02;15.48;;;8.93;;
22935;SDS011;11633;42.716;23.312;2022-12-07T02:53:28;19.65;;;9.18;;
22935;SDS011;11633;42.716;23.312;2022-12-07T02:55:54;18.90;;;9.73;;
22935;SDS011;11633;42.716;23.312;2022-12-07T03:03:31;16.75;;;9.48;;
22935;SDS011;11633;42.716;23.312;2022-12-07T03:06:08;17.58;;;8.75;;
22935;SDS011;11633;42.716;23.312;2022-12-07T03:11:20;17.55;;;9.68;;
22935;SDS011;11633;42.716;23.312;2022-12-07T03:18:49;18.65;;;9.43;;
22935;SDS011;11633;42.716;23.312;2022-12-07T03:21:17;18.02;;;9.43;;
22935;SDS011;11633;42.716;23.312;2022-12-07T03:23:44;23.83;;;9.05;;
22935;SDS011;11633;42.716;23.312;2022-12-07T03:26:12;19.63;;;9.57;;
22935;SDS011;11633;42.716;23.312;2022-12-07T03:28:41;16.25;;;9.02;;
22935;SDS011;11633;42.716;23.312;2022-12-07T03:31:21;19.92;;;9.52;;
22935;SDS011;11633;42.716;23.312;2022-12-07T03:33:56;20.92;;;9.32;;
22935;SDS011;11633;42.716;23.312;2022-12-07T03:36:32;17.90;;;10.07;;
22935;SDS011;11633;42.716;23.312;2022-12-07T03:39:09;19.85;;;9.45;;
22935;SDS011;11633;42.716;23.312;2022-12-07T03:41:38;18.30;;;10.05;;
22935;SDS011;11633;42.716;23.312;2022-12-07T03:44:03;22.00;;;9.98;;
22935;SDS011;11633;42.716;23.312;2022-12-07T03:46:43;21.45;;;10.75;;
22935;SDS011;11633;42.716;23.312;2022-12-07T03:49:43;21.10;;;10.02;;
22935;SDS011;11633;42.716;23.312;2022-12-07T03:54:36;19.75;;;10.73;;
22935;SDS011;11633;42.716;23.312;2022-12-07T03:57:03;19.95;;;10.15;;
22935;SDS011;11633;42.716;23.312;2022-12-07T03:59:29;24.92;;;10.88;;
22935;SDS011;11633;42.716;23.312;2022-12-07T04:01:55;21.48;;;11.13;;
22935;SDS011;11633;42.716;23.312;2022-12-07T04:04:22;19.27;;;10.40;;
22935;SDS011;11633;42.716;23.312;2022-12-07T04:06:48;19.38;;;10.90;;
22935;SDS011;11633;42.716;23.312;2022-12-07T04:09:13;20.92;;;9.20;;
22935;SDS011;11633;42.716;23.312;2022-12-07T04:11:39;19.13;;;10.13;;
22935;SDS011;11633;42.716;23.312;2022-12-07T04:14:04;20.45;;;9.52;;
22935;SDS011;11633;42.716;23.312;2022-12-07T04:19:16;25.05;;;9.95;;
22935;SDS011;11633;42.716;23.312;2022-12-07T04:21:42;18.75;;;9.80;;
22935;SDS011;11633;42.716;23.312;2022-12-07T04:24:07;19.15;;;9.10;;
22935;SDS011;11633;42.716;23.312;2022-12-07T04:26:32;20.13;;;10.82;;
22935;SDS011;11633;42.716;23.312;2022-12-07T04:28:58;19.05;;;10.45;;
22935;SDS011;11633;42.716;23.312;2022-12-07T04:31:23;22.33;;;11.25;;
22935;SDS011;11633;42.716;23.312;2022-12-07T04:33:48;27.20;;;14.60;;
22935;SDS011;11633;42.716;23.312;2022-12-07T04:36:14;28.95;;;15.07;;
22935;SDS011;11633;42.716;23.312;2022-12-07T04:38:39;29.05;;;16.27;;
22935;SDS011;11633;42.716;23.312;2022-12-07T04:41:05;26.52;;;13.32;;
22935;SDS011;11633;42.716;23.312;2022-12-07T04:43:30;28.50;;;13.80;;
22935;SDS011;11633;42.716;23.312;2022-12-07T04:45:56;31.77;;;16.25;;
22935;SDS011;11633;42.716;23.312;2022-12-07T04:48:21;28.15;;;12.70;;
22935;SDS011;11633;42.716;23.312;2022-12-07T04:50:47;29.67;;;16.27;;
22935;SDS011;11633;42.716;23.312;2022-12-07T04:53:13;36.78;;;18.23;;
22935;SDS011;11633;42.716;23.312;2022-12-07T04:55:38;30.92;;;15.68;;
22935;SDS011;11633;42.716;23.312;2022-12-07T04:58:03;31.65;;;14.23;;
22935;SDS011;11633;42.716;23.312;2022-12-07T05:00:29;24.52;;;14.45;;
22935;SDS011;11633;42.716;23.312;2022-12-07T05:02:54;26.98;;;14.98;;
22935;SDS011;11633;42.716;23.312;2022-12-07T05:05:19;32.75;;;14.02;;
22935;SDS011;11633;42.716;23.312;2022-12-07T05:07:44;33.28;;;17.50;;
22935;SDS011;11633;42.716;23.312;2022-12-07T05:10:10;33.22;;;17.63;;
22935;SDS011;11633;42.716;23.312;2022-12-07T05:12:35;29.63;;;15.77;;
22935;SDS011;11633;42.716;23.312;2022-12-07T05:15:00;28.77;;;17.63;;
22935;SDS011;11633;42.716;23.312;2022-12-07T05:17:25;32.80;;;18.23;;
22935;SDS011;11633;42.716;23.312;2022-12-07T05:19:51;36.22;;;19.95;;
22935;SDS011;11633;42.716;23.312;2022-12-07T05:22:16;36.58;;;20.92;;
22935;SDS011;11633;42.716;23.312;2022-12-07T05:24:41;32.00;;;17.38;;
22935;SDS011;11633;42.716;23.312;2022-12-07T05:27:06;33.05;;;18.88;;
22935;SDS011;11633;42.716;23.312;2022-12-07T05:29:32;37.63;;;21.23;;
22935;SDS011;11633;42.716;23.312;2022-12-07T05:31:57;29.08;;;15.82;;
22935;SDS011;11633;42.716;23.312;2022-12-07T05:34:22;42.42;;;22.00;;
22935;SDS011;11633;42.716;23.312;2022-12-07T05:36:47;47.33;;;22.25;;
22935;SDS011;11633;42.716;23.312;2022-12-07T05:39:13;32.00;;;15.07;;
22935;SDS011;11633;42.716;23.312;2022-12-07T05:41:38;39.58;;;20.35;;
22935;SDS011;11633;42.716;23.312;2022-12-07T05:44:22;37.75;;;22.17;;
22935;SDS011;11633;42.716;23.312;2022-12-07T05:46:47;46.78;;;26.15;;
22935;SDS011;11633;42.716;23.312;2022-12-07T05:49:13;42.47;;;22.48;;
22935;SDS011;11633;42.716;23.312;2022-12-07T05:51:38;63.05;;;31.38;;
22935;SDS011;11633;42.716;23.312;2022-12-07T05:54:03;40.20;;;23.20;;
22935;SDS011;11633;42.716;23.312;2022-12-07T05:56:28;34.20;;;18.75;;
22935;SDS011;11633;42.716;23.312;2022-12-07T05:58:54;35.92;;;18.10;;
22935;SDS011;11633;42.716;23.312;2022-12-07T06:01:38;36.97;;;18.15;;
22935;SDS011;11633;42.716;23.312;2022-12-07T06:04:03;28.50;;;16.27;;
22935;SDS011;11633;42.716;23.312;2022-12-07T06:06:28;36.25;;;19.83;;
22935;SDS011;11633;42.716;23.312;2022-12-07T06:08:54;27.05;;;14.68;;
22935;SDS011;11633;42.716;23.312;2022-12-07T06:11:19;30.15;;;16.35;;
22935;SDS011;11633;42.716;23.312;2022-12-07T06:14:03;29.17;;;16.23;;
22935;SDS011;11633;42.716;23.312;2022-12-07T06:16:28;32.65;;;16.58;;
22935;SDS011;11633;42.716;23.312;2022-12-07T06:18:53;36.88;;;17.70;;
22935;SDS011;11633;42.716;23.312;2022-12-07T06:21:18;36.35;;;17.40;;
22935;SDS011;11633;42.716;23.312;2022-12-07T06:23:44;37.97;;;16.75;;
22935;SDS011;11633;42.716;23.312;2022-12-07T06:26:09;38.70;;;19.15;;
22935;SDS011;11633;42.716;23.312;2022-12-07T06:28:34;41.90;;;23.47;;
22935;SDS011;11633;42.716;23.312;2022-12-07T06:31:00;37.22;;;20.10;;
22935;SDS011;11633;42.716;23.312;2022-12-07T06:33:26;32.15;;;18.80;;
22935;SDS011;11633;42.716;23.312;2022-12-07T06:35:51;41.35;;;20.45;;
22935;SDS011;11633;42.716;23.312;2022-12-07T06:38:17;48.35;;;24.50;;
22935;SDS011;11633;42.716;23.312;2022-12-07T06:40:44;39.80;;;20.85;;
22935;SDS011;11633;42.716;23.312;2022-12-07T06:43:10;38.13;;;17.13;;
22935;SDS011;11633;42.716;23.312;2022-12-07T06:45:35;31.75;;;15.77;;
22935;SDS011;11633;42.716;23.312;2022-12-07T06:48:00;31.42;;;15.02;;
22935;SDS011;11633;42.716;23.312;2022-12-07T06:50:25;30.48;;;15.48;;
22935;SDS011;11633;42.716;23.312;2022-12-07T06:52:51;28.08;;;15.63;;
22935;SDS011;11633;42.716;23.312;2022-12-07T06:55:16;27.35;;;15.43;;
22935;SDS011;11633;42.716;23.312;2022-12-07T06:57:42;32.50;;;17.60;;
22935;SDS011;11633;42.716;23.312;2022-12-07T07:00:07;34.70;;;17.75;;
22935;SDS011;11633;42.716;23.312;2022-12-07T07:02:32;35.83;;;19.17;;
22935;SDS011;11633;42.716;23.312;2022-12-07T07:04:58;36.70;;;20.33;;
22935;SDS011;11633;42.716;23.312;2022-12-07T07:07:23;47.22;;;22.40;;
22935;SDS011;11633;42.716;23.312;2022-12-07T07:09:48;53.70;;;27.15;;
22935;SDS011;11633;42.716;23.312;2022-12-07T07:12:13;71.93;;;38.80;;
22935;SDS011;11633;42.716;23.312;2022-12-07T07:14:39;70.10;;;34.90;;
22935;SDS011;11633;42.716;23.312;2022-12-07T07:17:04;66.80;;;33.25;;
22935;SDS011;11633;42.716;23.312;2022-12-07T07:19:29;59.75;;;35.20;;
22935;SDS011;11633;42.716;23.312;2022-12-07T07:21:54;65.80;;;34.25;;
22935;SDS011;11633;42.716;23.312;2022-12-07T07:24:20;55.28;;;28.60;;
22935;SDS011;11633;42.716;23.312;2022-12-07T07:26:45;47.13;;;28.35;;
22935;SDS011;11633;42.716;23.312;2022-12-07T07:29:10;61.47;;;34.50;;
22935;SDS011;11633;42.716;23.312;2022-12-07T07:31:35;82.38;;;41.67;;
22935;SDS011;11633;42.716;23.312;2022-12-07T07:34:02;73.15;;;39.65;;
22935;SDS011;11633;42.716;23.312;2022-12-07T07:36:27;76.82;;;42.13;;
22935;SDS011;11633;42.716;23.312;2022-12-07T07:38:52;77.55;;;40.40;;
22935;SDS011;11633;42.716;23.312;2022-12-07T07:41:17;70.55;;;37.72;;
22935;SDS011;11633;42.716;23.312;2022-12-07T07:43:43;78.93;;;40.30;;
22935;SDS011;11633;42.716;23.312;2022-12-07T07:46:08;68.22;;;36.25;;
22935;SDS011;11633;42.716;23.312;2022-12-07T07:48:33;70.38;;;36.95;;
22935;SDS011;11633;42.716;23.312;2022-12-07T07:50:58;59.67;;;34.60;;
22935;SDS011;11633;42.716;23.312;2022-12-07T07:53:24;58.38;;;30.50;;
22935;SDS011;11633;42.716;23.312;2022-12-07T07:55:53;54.75;;;29.15;;
22935;SDS011;11633;42.716;23.312;2022-12-07T07:58:18;46.05;;;27.23;;
22935;SDS011;11633;42.716;23.312;2022-12-07T08:00:44;43.80;;;24.42;;
22935;SDS011;11633;42.716;23.312;2022-12-07T08:03:09;38.28;;;23.13;;
22935;SDS011;11633;42.716;23.312;2022-12-07T08:05:36;39.63;;;21.75;;
22935;SDS011;11633;42.716;23.312;2022-12-07T08:08:01;37.88;;;20.42;;
22935;SDS011;11633;42.716;23.312;2022-12-07T08:10:26;35.88;;;20.58;;
22935;SDS011;11633;42.716;23.312;2022-12-07T08:12:52;39.13;;;20.67;;
22935;SDS011;11633;42.716;23.312;2022-12-07T08:15:35;37.08;;;20.95;;
22935;SDS011;11633;42.716;23.312;2022-12-07T08:18:01;34.50;;;18.48;;
22935;SDS011;11633;42.716;23.312;2022-12-07T08:20:26;34.00;;;18.98;;
22935;SDS011;11633;42.716;23.312;2022-12-07T08:22:52;30.30;;;18.80;;
22935;SDS011;11633;42.716;23.312;2022-12-07T08:25:17;31.73;;;18.42;;
22935;SDS011;11633;42.716;23.312;2022-12-07T08:27:42;33.80;;;19.67;;
22935;SDS011;11633;42.716;23.312;2022-12-07T08:30:08;33.15;;;19.95;;
22935;SDS011;11633;42.716;23.312;2022-12-07T08:32:33;38.25;;;19.58;;
22935;SDS011;11633;42.716;23.312;2022-12-07T08:34:58;31.20;;;18.27;;
22935;SDS011;11633;42.716;23.312;2022-12-07T08:37:24;36.95;;;18.73;;
22935;SDS011;11633;42.716;23.312;2022-12-07T08:39:49;34.47;;;18.05;;
22935;SDS011;11633;42.716;23.312;2022-12-07T08:42:14;44.20;;;25.30;;
22935;SDS011;11633;42.716;23.312;2022-12-07T08:44:39;54.08;;;24.25;;
22935;SDS011;11633;42.716;23.312;2022-12-07T08:47:05;52.80;;;25.25;;
22935;SDS011;11633;42.716;23.312;2022-12-07T08:49:33;48.22;;;22.85;;
22935;SDS011;11633;42.716;23.312;2022-12-07T08:51:59;47.28;;;24.00;;
22935;SDS011;11633;42.716;23.312;2022-12-07T08:54:24;48.60;;;25.52;;
22935;SDS011;11633;42.716;23.312;2022-12-07T08:56:50;55.53;;;25.50;;
22935;SDS011;11633;42.716;23.312;2022-12-07T08:59:16;52.28;;;25.75;;
22935;SDS011;11633;42.716;23.312;2022-12-07T09:01:42;52.25;;;28.98;;
22935;SDS011;11633;42.716;23.312;2022-12-07T09:04:08;54.88;;;29.00;;
22935;SDS011;11633;42.716;23.312;2022-12-07T09:06:33;47.75;;;26.23;;
22935;SDS011;11633;42.716;23.312;2022-12-07T09:08:58;48.42;;;23.80;;
22935;SDS011;11633;42.716;23.312;2022-12-07T09:11:25;47.38;;;22.30;;
22935;SDS011;11633;42.716;23.312;2022-12-07T09:13:50;37.20;;;19.55;;
22935;SDS011;11633;42.716;23.312;2022-12-07T09:16:15;33.97;;;17.50;;
22935;SDS011;11633;42.716;23.312;2022-12-07T09:18:40;29.35;;;17.55;;
22935;SDS011;11633;42.716;23.312;2022-12-07T09:21:06;37.97;;;20.23;;
22935;SDS011;11633;42.716;23.312;2022-12-07T09:23:32;34.13;;;19.58;;
22935;SDS011;11633;42.716;23.312;2022-12-07T09:26:00;33.53;;;18.83;;
22935;SDS011;11633;42.716;23.312;2022-12-07T09:28:26;34.97;;;17.95;;
22935;SDS011;11633;42.716;23.312;2022-12-07T09:30:51;34.90;;;18.77;;
22935;SDS011;11633;42.716;23.312;2022-12-07T09:33:16;33.65;;;18.48;;
22935;SDS011;11633;42.716;23.312;2022-12-07T09:35:45;41.67;;;19.40;;
22935;SDS011;11633;42.716;23.312;2022-12-07T09:38:11;33.67;;;20.48;;
22935;SDS011;11633;42.716;23.312;2022-12-07T09:40:36;38.38;;;20.52;;
22935;SDS011;11633;42.716;23.312;2022-12-07T09:43:01;36.28;;;21.38;;
22935;SDS011;11633;42.716;23.312;2022-12-07T09:45:30;35.65;;;20.42;;
22935;SDS011;11633;42.716;23.312;2022-12-07T09:47:57;35.35;;;19.88;;
22935;SDS011;11633;42.716;23.312;2022-12-07T09:50:24;34.70;;;19.42;;
22935;SDS011;11633;42.716;23.312;2022-12-07T09:52:50;35.40;;;19.38;;
22935;SDS011;11633;42.716;23.312;2022-12-07T09:55:22;37.15;;;20.10;;
22935;SDS011;11633;42.716;23.312;2022-12-07T09:57:49;36.17;;;19.77;;
22935;SDS011;11633;42.716;23.312;2022-12-07T10:00:17;33.50;;;19.38;;
22935;SDS011;11633;42.716;23.312;2022-12-07T10:03:03;31.92;;;18.38;;
22935;SDS011;11633;42.716;23.312;2022-12-07T10:07:53;33.42;;;18.40;;
22935;SDS011;11633;42.716;23.312;2022-12-07T10:10:39;39.78;;;19.38;;
22935;SDS011;11633;42.716;23.312;2022-12-07T10:13:06;32.85;;;18.20;;
22935;SDS011;11633;42.716;23.312;2022-12-07T10:18:30;30.33;;;16.88;;
22935;SDS011;11633;42.716;23.312;2022-12-07T10:21:06;36.70;;;18.63;;
22935;SDS011;11633;42.716;23.312;2022-12-07T10:23:35;30.08;;;18.95;;
22935;SDS011;11633;42.716;23.312;2022-12-07T10:26:10;32.97;;;18.95;;
22935;SDS011;11633;42.716;23.312;2022-12-07T10:28:44;33.65;;;17.63;;
22935;SDS011;11633;42.716;23.312;2022-12-07T10:31:16;32.10;;;18.40;;
22935;SDS011;11633;42.716;23.312;2022-12-07T10:33:58;30.63;;;17.05;;
22935;SDS011;11633;42.716;23.312;2022-12-07T10:36:42;28.13;;;16.75;;
22935;SDS011;11633;42.716;23.312;2022-12-07T10:39:14;29.13;;;16.13;;
22935;SDS011;11633;42.716;23.312;2022-12-07T10:41:59;32.33;;;16.80;;
22935;SDS011;11633;42.716;23.312;2022-12-07T10:44:25;27.48;;;15.95;;
22935;SDS011;11633;42.716;23.312;2022-12-07T10:59:42;27.63;;;14.65;;
22935;SDS011;11633;42.716;23.312;2022-12-07T11:05:10;26.05;;;13.63;;
22935;SDS011;11633;42.716;23.312;2022-12-07T11:13:12;26.13;;;14.20;;
22935;SDS011;11633;42.716;23.312;2022-12-07T11:15:48;24.23;;;12.73;;
22935;SDS011;11633;42.716;23.312;2022-12-07T11:28:50;18.73;;;10.20;;
22935;SDS011;11633;42.716;23.312;2022-12-07T11:31:29;17.38;;;10.98;;
22935;SDS011;11633;42.716;23.312;2022-12-07T11:33:57;21.48;;;10.05;;
22935;SDS011;11633;42.716;23.312;2022-12-07T11:38:57;20.90;;;10.45;;
22935;SDS011;11633;42.716;23.312;2022-12-07T11:41:26;17.35;;;10.30;;
22935;SDS011;11633;42.716;23.312;2022-12-07T11:44:05;18.85;;;10.75;;
22935;SDS011;11633;42.716;23.312;2022-12-07T11:46:51;18.58;;;10.65;;
22935;SDS011;11633;42.716;23.312;2022-12-07T11:52:04;21.90;;;10.95;;
22935;SDS011;11633;42.716;23.312;2022-12-07T11:54:32;15.88;;;9.43;;
22935;SDS011;11633;42.716;23.312;2022-12-07T11:57:01;17.33;;;10.18;;
22935;SDS011;11633;42.716;23.312;2022-12-07T11:59:30;19.17;;;9.68;;
22935;SDS011;11633;42.716;23.312;2022-12-07T12:02:03;20.15;;;10.73;;
22935;SDS011;11633;42.716;23.312;2022-12-07T12:04:45;18.98;;;10.45;;
22935;SDS011;11633;42.716;23.312;2022-12-07T12:07:15;17.35;;;11.15;;
22935;SDS011;11633;42.716;23.312;2022-12-07T12:09:45;18.27;;;10.32;;
22935;SDS011;11633;42.716;23.312;2022-12-07T12:12:37;16.65;;;9.07;;
22935;SDS011;11633;42.716;23.312;2022-12-07T12:20:31;16.95;;;8.52;;
22935;SDS011;11633;42.716;23.312;2022-12-07T12:23:14;15.75;;;8.98;;
22935;SDS011;11633;42.716;23.312;2022-12-07T12:25:54;14.27;;;8.02;;
22935;SDS011;11633;42.716;23.312;2022-12-07T12:28:24;11.60;;;7.40;;
22935;SDS011;11633;42.716;23.312;2022-12-07T12:33:29;16.65;;;9.00;;
22935;SDS011;11633;42.716;23.312;2022-12-07T12:43:58;13.85;;;7.78;;
22935;SDS011;11633;42.716;23.312;2022-12-07T12:51:39;13.93;;;8.52;;
22935;SDS011;11633;42.716;23.312;2022-12-07T12:54:05;13.57;;;7.38;;
22935;SDS011;11633;42.716;23.312;2022-12-07T12:56:43;14.20;;;7.85;;
22935;SDS011;11633;42.716;23.312;2022-12-07T13:01:46;17.08;;;8.52;;
22935;SDS011;11633;42.716;23.312;2022-12-07T13:04:37;15.70;;;8.25;;
22935;SDS011;11633;42.716;23.312;2022-12-07T13:06:58;14.55;;;8.43;;
22935;SDS011;11633;42.716;23.312;2022-12-07T13:09:24;14.63;;;8.63;;
22935;SDS011;11633;42.716;23.312;2022-12-07T13:11:55;14.98;;;8.25;;
22935;SDS011;11633;42.716;23.312;2022-12-07T13:17:08;13.63;;;7.38;;
22935;SDS011;11633;42.716;23.312;2022-12-07T13:27:26;18.40;;;8.98;;
22935;SDS011;11633;42.716;23.312;2022-12-07T13:29:52;14.77;;;7.47;;
22935;SDS011;11633;42.716;23.312;2022-12-07T13:32:23;13.07;;;8.13;;
22935;SDS011;11633;42.716;23.312;2022-12-07T13:34:48;14.38;;;9.20;;
22935;SDS011;11633;42.716;23.312;2022-12-07T13:39:45;13.23;;;8.13;;
22935;SDS011;11633;42.716;23.312;2022-12-07T13:42:44;11.40;;;7.38;;
22935;SDS011;11633;42.716;23.312;2022-12-07T13:50:48;20.13;;;8.98;;
22935;SDS011;11633;42.716;23.312;2022-12-07T13:53:17;19.75;;;8.13;;
22935;SDS011;11633;42.716;23.312;2022-12-07T13:55:45;14.20;;;7.78;;
22935;SDS011;11633;42.716;23.312;2022-12-07T13:58:11;17.73;;;7.75;;
22935;SDS011;11633;42.716;23.312;2022-12-07T14:00:36;16.67;;;8.20;;
22935;SDS011;11633;42.716;23.312;2022-12-07T14:05:36;17.73;;;9.00;;
22935;SDS011;11633;42.716;23.312;2022-12-07T14:10:29;14.02;;;8.82;;
22935;SDS011;11633;42.716;23.312;2022-12-07T14:12:55;14.50;;;7.85;;
22935;SDS011;11633;42.716;23.312;2022-12-07T14:15:25;12.27;;;7.15;;
22935;SDS011;11633;42.716;23.312;2022-12-07T14:17:53;13.77;;;7.80;;
22935;SDS011;11633;42.716;23.312;2022-12-07T14:20:31;16.88;;;8.95;;
22935;SDS011;11633;42.716;23.312;2022-12-07T14:22:57;14.55;;;7.97;;
22935;SDS011;11633;42.716;23.312;2022-12-07T14:25:23;13.20;;;6.82;;
22935;SDS011;11633;42.716;23.312;2022-12-07T14:27:49;15.85;;;8.10;;
22935;SDS011;11633;42.716;23.312;2022-12-07T14:30:16;12.98;;;7.35;;
22935;SDS011;11633;42.716;23.312;2022-12-07T14:32:42;15.55;;;7.40;;
22935;SDS011;11633;42.716;23.312;2022-12-07T14:35:13;11.95;;;6.80;;
22935;SDS011;11633;42.716;23.312;2022-12-07T14:37:40;11.68;;;6.88;;
22935;SDS011;11633;42.716;23.312;2022-12-07T14:40:07;12.15;;;7.50;;
22935;SDS011;11633;42.716;23.312;2022-12-07T14:42:32;17.92;;;8.30;;
22935;SDS011;11633;42.716;23.312;2022-12-07T14:44:58;16.02;;;8.05;;
22935;SDS011;11633;42.716;23.312;2022-12-07T14:47:24;20.00;;;9.00;;
22935;SDS011;11633;42.716;23.312;2022-12-07T14:49:50;14.10;;;8.05;;
22935;SDS011;11633;42.716;23.312;2022-12-07T14:52:19;14.00;;;8.45;;
22935;SDS011;11633;42.716;23.312;2022-12-07T14:54:45;15.75;;;8.35;;
22935;SDS011;11633;42.716;23.312;2022-12-07T14:57:11;13.20;;;8.18;;
22935;SDS011;11633;42.716;23.312;2022-12-07T14:59:36;18.38;;;9.35;;
22935;SDS011;11633;42.716;23.312;2022-12-07T15:02:02;16.48;;;9.15;;
22935;SDS011;11633;42.716;23.312;2022-12-07T15:04:27;18.67;;;8.35;;
22935;SDS011;11633;42.716;23.312;2022-12-07T15:06:56;13.65;;;8.80;;
22935;SDS011;11633;42.716;23.312;2022-12-07T15:09:22;19.23;;;8.90;;
22935;SDS011;11633;42.716;23.312;2022-12-07T15:11:47;21.55;;;10.38;;
22935;SDS011;11633;42.716;23.312;2022-12-07T15:14:12;17.70;;;9.40;;
22935;SDS011;11633;42.716;23.312;2022-12-07T15:16:39;23.75;;;13.45;;
22935;SDS011;11633;42.716;23.312;2022-12-07T15:19:11;19.08;;;8.90;;
22935;SDS011;11633;42.716;23.312;2022-12-07T15:21:37;21.73;;;10.10;;
22935;SDS011;11633;42.716;23.312;2022-12-07T15:24:02;22.67;;;11.50;;
22935;SDS011;11633;42.716;23.312;2022-12-07T15:26:27;20.80;;;11.73;;
22935;SDS011;11633;42.716;23.312;2022-12-07T15:28:53;21.40;;;11.82;;
22935;SDS011;11633;42.716;23.312;2022-12-07T15:31:19;19.35;;;11.45;;
22935;SDS011;11633;42.716;23.312;2022-12-07T15:33:44;18.35;;;10.15;;
22935;SDS011;11633;42.716;23.312;2022-12-07T15:36:15;22.42;;;9.32;;
22935;SDS011;11633;42.716;23.312;2022-12-07T15:38:43;20.75;;;12.50;;
22935;SDS011;11633;42.716;23.312;2022-12-07T15:41:08;13.52;;;8.55;;
22935;SDS011;11633;42.716;23.312;2022-12-07T15:43:33;20.23;;;9.20;;
22935;SDS011;11633;42.716;23.312;2022-12-07T15:46:17;25.50;;;12.52;;
22935;SDS011;11633;42.716;23.312;2022-12-07T15:48:42;28.17;;;12.73;;
22935;SDS011;11633;42.716;23.312;2022-12-07T15:51:08;21.73;;;10.13;;
22935;SDS011;11633;42.716;23.312;2022-12-07T15:53:34;17.55;;;10.52;;
22935;SDS011;11633;42.716;23.312;2022-12-07T15:55:59;21.23;;;11.85;;
22935;SDS011;11633;42.716;23.312;2022-12-07T15:58:24;22.98;;;12.32;;
22935;SDS011;11633;42.716;23.312;2022-12-07T16:00:50;32.45;;;12.32;;
22935;SDS011;11633;42.716;23.312;2022-12-07T16:03:15;26.33;;;12.95;;
22935;SDS011;11633;42.716;23.312;2022-12-07T16:05:40;21.10;;;11.85;;
22935;SDS011;11633;42.716;23.312;2022-12-07T16:08:07;35.38;;;15.93;;
22935;SDS011;11633;42.716;23.312;2022-12-07T16:10:33;30.05;;;12.80;;
22935;SDS011;11633;42.716;23.312;2022-12-07T16:12:58;29.35;;;14.13;;
22935;SDS011;11633;42.716;23.312;2022-12-07T16:15:23;28.50;;;14.70;;
22935;SDS011;11633;42.716;23.312;2022-12-07T16:17:50;24.98;;;14.30;;